sensor_id;sensor_type;location;lat;lon;timestamp;P1;durP1;ratioP1;P2;durP2;ratioP2
36259;SDS011;22296;50.824;5.644;2023-05-10T00:01:00;1.85;;;1.25;;
36259;SDS011;22296;50.824;5.644;2023-05-10T00:03:26;1.73;;;1.17;;
36259;SDS011;22296;50.824;5.644;2023-05-10T00:05:53;1.30;;;1.05;;
36259;SDS011;22296;50.824;5.644;2023-05-10T00:08:20;1.23;;;1.00;;
36259;SDS011;22296;50.824;5.644;2023-05-10T00:10:47;1.13;;;1.02;;
36259;SDS011;22296;50.824;5.644;2023-05-10T00:13:14;1.40;;;1.13;;
36259;SDS011;22296;50.824;5.644;2023-05-10T00:15:41;1.52;;;1.42;;
36259;SDS011;22296;50.824;5.644;2023-05-10T00:18:08;1.48;;;1.00;;
36259;SDS011;22296;50.824;5.644;2023-05-10T00:20:35;2.83;;;1.23;;
36259;SDS011;22296;50.824;5.644;2023-05-10T00:23:01;1.27;;;1.10;;
36259;SDS011;22296;50.824;5.644;2023-05-10T00:25:28;1.05;;;0.95;;
36259;SDS011;22296;50.824;5.644;2023-05-10T00:27:55;1.55;;;1.05;;
36259;SDS011;22296;50.824;5.644;2023-05-10T00:30:23;1.63;;;1.03;;
36259;SDS011;22296;50.824;5.644;2023-05-10T00:32:50;1.13;;;1.00;;
36259;SDS011;22296;50.824;5.644;2023-05-10T00:35:18;1.20;;;1.02;;
36259;SDS011;22296;50.824;5.644;2023-05-10T00:37:45;1.52;;;1.10;;
36259;SDS011;22296;50.824;5.644;2023-05-10T00:40:11;1.10;;;0.88;;
36259;SDS011;22296;50.824;5.644;2023-05-10T00:42:40;1.20;;;1.00;;
36259;SDS011;22296;50.824;5.644;2023-05-10T00:45:07;1.42;;;1.10;;
36259;SDS011;22296;50.824;5.644;2023-05-10T00:47:35;1.33;;;1.00;;
36259;SDS011;22296;50.824;5.644;2023-05-10T00:50:02;1.42;;;1.33;;
36259;SDS011;22296;50.824;5.644;2023-05-10T00:52:30;1.13;;;0.90;;
36259;SDS011;22296;50.824;5.644;2023-05-10T00:54:57;1.10;;;1.00;;
36259;SDS011;22296;50.824;5.644;2023-05-10T00:57:24;0.82;;;0.80;;
36259;SDS011;22296;50.824;5.644;2023-05-10T00:59:51;1.30;;;1.05;;
36259;SDS011;22296;50.824;5.644;2023-05-10T01:02:18;1.35;;;1.08;;
36259;SDS011;22296;50.824;5.644;2023-05-10T01:04:45;1.30;;;1.10;;
36259;SDS011;22296;50.824;5.644;2023-05-10T01:07:12;1.50;;;1.20;;
36259;SDS011;22296;50.824;5.644;2023-05-10T01:09:39;1.10;;;0.85;;
36259;SDS011;22296;50.824;5.644;2023-05-10T01:12:06;1.33;;;1.20;;
36259;SDS011;22296;50.824;5.644;2023-05-10T01:14:34;1.38;;;0.90;;
36259;SDS011;22296;50.824;5.644;2023-05-10T01:17:02;1.05;;;0.80;;
36259;SDS011;22296;50.824;5.644;2023-05-10T01:19:30;0.93;;;0.88;;
36259;SDS011;22296;50.824;5.644;2023-05-10T01:27:46;1.63;;;1.27;;
36259;SDS011;22296;50.824;5.644;2023-05-10T01:33:19;1.27;;;0.98;;
36259;SDS011;22296;50.824;5.644;2023-05-10T01:38:31;1.30;;;0.95;;
36259;SDS011;22296;50.824;5.644;2023-05-10T01:46:46;1.48;;;0.90;;
36259;SDS011;22296;50.824;5.644;2023-05-10T01:51:53;1.03;;;0.80;;
36259;SDS011;22296;50.824;5.644;2023-05-10T01:54:25;1.02;;;0.93;;
36259;SDS011;22296;50.824;5.644;2023-05-10T01:56:56;1.38;;;1.05;;
36259;SDS011;22296;50.824;5.644;2023-05-10T01:59:30;1.33;;;1.00;;
36259;SDS011;22296;50.824;5.644;2023-05-10T02:02:07;2.05;;;0.98;;
36259;SDS011;22296;50.824;5.644;2023-05-10T02:04:39;2.47;;;1.40;;
36259;SDS011;22296;50.824;5.644;2023-05-10T02:07:07;2.27;;;1.13;;
36259;SDS011;22296;50.824;5.644;2023-05-10T02:09:36;2.08;;;1.27;;
36259;SDS011;22296;50.824;5.644;2023-05-10T02:12:04;1.27;;;1.10;;
36259;SDS011;22296;50.824;5.644;2023-05-10T02:14:34;2.03;;;1.45;;
36259;SDS011;22296;50.824;5.644;2023-05-10T02:17:04;1.17;;;1.08;;
36259;SDS011;22296;50.824;5.644;2023-05-10T02:19:32;3.70;;;1.42;;
36259;SDS011;22296;50.824;5.644;2023-05-10T02:22:01;2.17;;;1.60;;
36259;SDS011;22296;50.824;5.644;2023-05-10T02:24:31;3.63;;;1.45;;
36259;SDS011;22296;50.824;5.644;2023-05-10T02:27:00;4.38;;;1.23;;
36259;SDS011;22296;50.824;5.644;2023-05-10T02:29:30;4.50;;;1.30;;
36259;SDS011;22296;50.824;5.644;2023-05-10T02:31:58;3.72;;;1.50;;
36259;SDS011;22296;50.824;5.644;2023-05-10T02:34:26;1.65;;;1.30;;
36259;SDS011;22296;50.824;5.644;2023-05-10T02:36:54;3.72;;;1.48;;
36259;SDS011;22296;50.824;5.644;2023-05-10T02:39:22;6.22;;;1.40;;
36259;SDS011;22296;50.824;5.644;2023-05-10T02:41:51;3.92;;;1.30;;
36259;SDS011;22296;50.824;5.644;2023-05-10T02:44:19;1.48;;;1.30;;
36259;SDS011;22296;50.824;5.644;2023-05-10T02:46:48;2.97;;;1.23;;
36259;SDS011;22296;50.824;5.644;2023-05-10T02:49:15;2.30;;;1.65;;
36259;SDS011;22296;50.824;5.644;2023-05-10T02:51:47;2.50;;;1.48;;
36259;SDS011;22296;50.824;5.644;2023-05-10T02:54:18;2.63;;;1.80;;
36259;SDS011;22296;50.824;5.644;2023-05-10T02:56:51;2.92;;;1.42;;
36259;SDS011;22296;50.824;5.644;2023-05-10T02:59:22;2.08;;;1.63;;
36259;SDS011;22296;50.824;5.644;2023-05-10T03:01:49;1.58;;;1.48;;
36259;SDS011;22296;50.824;5.644;2023-05-10T03:04:17;2.28;;;1.52;;
36259;SDS011;22296;50.824;5.644;2023-05-10T03:06:44;1.80;;;1.45;;
36259;SDS011;22296;50.824;5.644;2023-05-10T03:09:11;1.77;;;1.63;;
36259;SDS011;22296;50.824;5.644;2023-05-10T03:17:40;4.70;;;1.83;;
36259;SDS011;22296;50.824;5.644;2023-05-10T03:20:21;2.95;;;1.75;;
36259;SDS011;22296;50.824;5.644;2023-05-10T03:22:55;3.40;;;1.77;;
36259;SDS011;22296;50.824;5.644;2023-05-10T03:25:26;5.00;;;2.17;;
36259;SDS011;22296;50.824;5.644;2023-05-10T03:27:56;4.63;;;1.90;;
36259;SDS011;22296;50.824;5.644;2023-05-10T03:30:24;3.10;;;2.03;;
36259;SDS011;22296;50.824;5.644;2023-05-10T03:32:51;3.35;;;1.88;;
36259;SDS011;22296;50.824;5.644;2023-05-10T03:35:19;2.90;;;1.92;;
36259;SDS011;22296;50.824;5.644;2023-05-10T03:37:46;3.95;;;1.75;;
36259;SDS011;22296;50.824;5.644;2023-05-10T03:40:13;3.40;;;1.95;;
36259;SDS011;22296;50.824;5.644;2023-05-10T03:42:42;3.25;;;1.90;;
36259;SDS011;22296;50.824;5.644;2023-05-10T03:45:09;3.10;;;2.00;;
36259;SDS011;22296;50.824;5.644;2023-05-10T03:47:36;2.35;;;1.95;;
36259;SDS011;22296;50.824;5.644;2023-05-10T03:50:03;2.95;;;1.80;;
36259;SDS011;22296;50.824;5.644;2023-05-10T03:52:30;2.58;;;1.70;;
36259;SDS011;22296;50.824;5.644;2023-05-10T03:54:58;2.47;;;1.90;;
36259;SDS011;22296;50.824;5.644;2023-05-10T03:57:25;3.35;;;1.95;;
36259;SDS011;22296;50.824;5.644;2023-05-10T03:59:52;3.17;;;2.20;;
36259;SDS011;22296;50.824;5.644;2023-05-10T04:02:18;2.53;;;2.03;;
36259;SDS011;22296;50.824;5.644;2023-05-10T04:04:45;2.72;;;2.00;;
36259;SDS011;22296;50.824;5.644;2023-05-10T04:07:12;3.03;;;2.15;;
36259;SDS011;22296;50.824;5.644;2023-05-10T04:09:39;2.28;;;2.05;;
36259;SDS011;22296;50.824;5.644;2023-05-10T04:12:06;3.00;;;2.53;;
36259;SDS011;22296;50.824;5.644;2023-05-10T04:14:36;3.17;;;2.10;;
36259;SDS011;22296;50.824;5.644;2023-05-10T04:17:03;2.28;;;1.70;;
36259;SDS011;22296;50.824;5.644;2023-05-10T04:19:30;3.35;;;2.05;;
36259;SDS011;22296;50.824;5.644;2023-05-10T04:21:57;2.35;;;2.03;;
36259;SDS011;22296;50.824;5.644;2023-05-10T04:24:24;3.60;;;2.13;;
36259;SDS011;22296;50.824;5.644;2023-05-10T04:26:51;2.65;;;2.15;;
36259;SDS011;22296;50.824;5.644;2023-05-10T04:29:23;2.35;;;1.88;;
36259;SDS011;22296;50.824;5.644;2023-05-10T04:31:49;2.72;;;2.10;;
36259;SDS011;22296;50.824;5.644;2023-05-10T04:34:17;2.47;;;1.90;;
36259;SDS011;22296;50.824;5.644;2023-05-10T04:36:43;2.75;;;2.20;;
36259;SDS011;22296;50.824;5.644;2023-05-10T04:39:10;2.50;;;2.20;;
36259;SDS011;22296;50.824;5.644;2023-05-10T04:41:37;3.63;;;2.78;;
36259;SDS011;22296;50.824;5.644;2023-05-10T04:44:04;3.40;;;2.25;;
36259;SDS011;22296;50.824;5.644;2023-05-10T04:46:31;3.35;;;2.53;;
36259;SDS011;22296;50.824;5.644;2023-05-10T04:48:58;3.00;;;2.35;;
36259;SDS011;22296;50.824;5.644;2023-05-10T04:51:24;4.32;;;2.72;;
36259;SDS011;22296;50.824;5.644;2023-05-10T04:53:51;3.92;;;2.35;;
36259;SDS011;22296;50.824;5.644;2023-05-10T04:56:31;4.45;;;2.75;;
36259;SDS011;22296;50.824;5.644;2023-05-10T04:58:58;4.50;;;2.80;;
36259;SDS011;22296;50.824;5.644;2023-05-10T05:01:25;3.47;;;2.50;;
36259;SDS011;22296;50.824;5.644;2023-05-10T05:03:52;4.20;;;2.60;;
36259;SDS011;22296;50.824;5.644;2023-05-10T05:06:19;3.60;;;2.55;;
36259;SDS011;22296;50.824;5.644;2023-05-10T05:08:47;4.57;;;2.42;;
36259;SDS011;22296;50.824;5.644;2023-05-10T05:11:16;3.33;;;2.80;;
36259;SDS011;22296;50.824;5.644;2023-05-10T05:13:43;3.97;;;2.40;;
36259;SDS011;22296;50.824;5.644;2023-05-10T05:16:10;4.65;;;2.20;;
36259;SDS011;22296;50.824;5.644;2023-05-10T05:18:38;3.33;;;2.30;;
36259;SDS011;22296;50.824;5.644;2023-05-10T05:21:18;4.95;;;2.40;;
36259;SDS011;22296;50.824;5.644;2023-05-10T05:23:45;3.22;;;2.38;;
36259;SDS011;22296;50.824;5.644;2023-05-10T05:26:12;3.20;;;2.63;;
36259;SDS011;22296;50.824;5.644;2023-05-10T05:28:39;3.63;;;2.47;;
36259;SDS011;22296;50.824;5.644;2023-05-10T05:31:06;3.22;;;2.58;;
36259;SDS011;22296;50.824;5.644;2023-05-10T05:33:34;3.42;;;2.40;;
36259;SDS011;22296;50.824;5.644;2023-05-10T05:36:02;3.00;;;2.58;;
36259;SDS011;22296;50.824;5.644;2023-05-10T05:38:30;3.53;;;2.40;;
36259;SDS011;22296;50.824;5.644;2023-05-10T05:40:57;3.15;;;2.67;;
36259;SDS011;22296;50.824;5.644;2023-05-10T05:43:24;3.10;;;2.42;;
36259;SDS011;22296;50.824;5.644;2023-05-10T05:45:54;3.40;;;2.42;;
36259;SDS011;22296;50.824;5.644;2023-05-10T05:48:21;3.20;;;2.40;;
36259;SDS011;22296;50.824;5.644;2023-05-10T05:50:48;4.22;;;2.60;;
36259;SDS011;22296;50.824;5.644;2023-05-10T05:53:15;4.10;;;2.47;;
36259;SDS011;22296;50.824;5.644;2023-05-10T05:55:52;3.47;;;2.72;;
36259;SDS011;22296;50.824;5.644;2023-05-10T05:58:23;4.13;;;2.55;;
36259;SDS011;22296;50.824;5.644;2023-05-10T06:00:51;3.45;;;2.42;;
36259;SDS011;22296;50.824;5.644;2023-05-10T06:03:19;3.10;;;2.30;;
36259;SDS011;22296;50.824;5.644;2023-05-10T06:05:46;3.38;;;2.50;;
36259;SDS011;22296;50.824;5.644;2023-05-10T06:08:13;3.50;;;2.10;;
36259;SDS011;22296;50.824;5.644;2023-05-10T06:10:40;2.97;;;2.65;;
36259;SDS011;22296;50.824;5.644;2023-05-10T06:13:07;3.75;;;2.28;;
36259;SDS011;22296;50.824;5.644;2023-05-10T06:15:34;2.38;;;2.13;;
36259;SDS011;22296;50.824;5.644;2023-05-10T06:18:01;2.70;;;2.20;;
36259;SDS011;22296;50.824;5.644;2023-05-10T06:20:28;3.05;;;2.40;;
36259;SDS011;22296;50.824;5.644;2023-05-10T06:22:55;3.65;;;2.20;;
36259;SDS011;22296;50.824;5.644;2023-05-10T06:25:21;2.83;;;2.20;;
36259;SDS011;22296;50.824;5.644;2023-05-10T06:27:48;2.50;;;2.30;;
36259;SDS011;22296;50.824;5.644;2023-05-10T06:30:19;2.83;;;2.40;;
36259;SDS011;22296;50.824;5.644;2023-05-10T06:32:46;2.90;;;2.00;;
36259;SDS011;22296;50.824;5.644;2023-05-10T06:35:13;2.20;;;2.00;;
36259;SDS011;22296;50.824;5.644;2023-05-10T06:37:40;3.40;;;2.38;;
36259;SDS011;22296;50.824;5.644;2023-05-10T06:40:07;2.97;;;2.15;;
36259;SDS011;22296;50.824;5.644;2023-05-10T06:42:35;2.80;;;2.28;;
36259;SDS011;22296;50.824;5.644;2023-05-10T06:45:02;2.35;;;2.15;;
36259;SDS011;22296;50.824;5.644;2023-05-10T06:47:30;2.50;;;2.30;;
36259;SDS011;22296;50.824;5.644;2023-05-10T06:49:56;3.25;;;2.47;;
36259;SDS011;22296;50.824;5.644;2023-05-10T06:52:23;3.72;;;2.17;;
36259;SDS011;22296;50.824;5.644;2023-05-10T06:54:50;3.08;;;2.40;;
36259;SDS011;22296;50.824;5.644;2023-05-10T06:57:17;2.90;;;2.15;;
36259;SDS011;22296;50.824;5.644;2023-05-10T06:59:57;3.08;;;2.78;;
36259;SDS011;22296;50.824;5.644;2023-05-10T07:02:25;3.55;;;2.13;;
36259;SDS011;22296;50.824;5.644;2023-05-10T07:04:52;3.58;;;2.58;;
36259;SDS011;22296;50.824;5.644;2023-05-10T07:07:19;3.17;;;2.80;;
36259;SDS011;22296;50.824;5.644;2023-05-10T07:09:46;2.60;;;2.10;;
36259;SDS011;22296;50.824;5.644;2023-05-10T07:12:13;2.90;;;2.60;;
36259;SDS011;22296;50.824;5.644;2023-05-10T07:14:41;3.43;;;2.70;;
36259;SDS011;22296;50.824;5.644;2023-05-10T07:17:08;2.97;;;2.50;;
36259;SDS011;22296;50.824;5.644;2023-05-10T07:19:35;2.83;;;2.17;;
36259;SDS011;22296;50.824;5.644;2023-05-10T07:22:02;2.78;;;2.50;;
36259;SDS011;22296;50.824;5.644;2023-05-10T07:24:29;2.85;;;2.40;;
36259;SDS011;22296;50.824;5.644;2023-05-10T07:26:57;2.53;;;2.08;;
36259;SDS011;22296;50.824;5.644;2023-05-10T07:29:24;3.00;;;2.60;;
36259;SDS011;22296;50.824;5.644;2023-05-10T07:31:51;4.03;;;2.90;;
36259;SDS011;22296;50.824;5.644;2023-05-10T07:34:18;2.95;;;2.58;;
36259;SDS011;22296;50.824;5.644;2023-05-10T07:36:45;3.72;;;2.60;;
36259;SDS011;22296;50.824;5.644;2023-05-10T07:39:12;3.35;;;2.33;;
36259;SDS011;22296;50.824;5.644;2023-05-10T07:41:51;3.13;;;2.25;;
36259;SDS011;22296;50.824;5.644;2023-05-10T07:44:18;3.20;;;2.63;;
36259;SDS011;22296;50.824;5.644;2023-05-10T07:46:46;2.80;;;2.30;;
36259;SDS011;22296;50.824;5.644;2023-05-10T07:49:14;2.85;;;2.40;;
36259;SDS011;22296;50.824;5.644;2023-05-10T07:51:41;2.70;;;2.15;;
36259;SDS011;22296;50.824;5.644;2023-05-10T07:54:08;2.45;;;2.25;;
36259;SDS011;22296;50.824;5.644;2023-05-10T07:56:35;3.28;;;2.30;;
36259;SDS011;22296;50.824;5.644;2023-05-10T07:59:02;2.28;;;2.00;;
36259;SDS011;22296;50.824;5.644;2023-05-10T08:01:31;2.90;;;1.63;;
36259;SDS011;22296;50.824;5.644;2023-05-10T08:04:01;2.63;;;2.10;;
36259;SDS011;22296;50.824;5.644;2023-05-10T08:06:28;3.03;;;2.05;;
36259;SDS011;22296;50.824;5.644;2023-05-10T08:08:56;4.15;;;2.10;;
36259;SDS011;22296;50.824;5.644;2023-05-10T08:11:24;3.90;;;2.40;;
36259;SDS011;22296;50.824;5.644;2023-05-10T08:13:51;4.28;;;1.88;;
36259;SDS011;22296;50.824;5.644;2023-05-10T08:16:19;3.58;;;2.10;;
36259;SDS011;22296;50.824;5.644;2023-05-10T08:18:47;3.08;;;2.40;;
36259;SDS011;22296;50.824;5.644;2023-05-10T08:21:14;7.15;;;2.17;;
36259;SDS011;22296;50.824;5.644;2023-05-10T08:23:42;2.92;;;2.05;;
36259;SDS011;22296;50.824;5.644;2023-05-10T08:26:10;2.92;;;2.28;;
36259;SDS011;22296;50.824;5.644;2023-05-10T08:28:37;4.57;;;1.95;;
36259;SDS011;22296;50.824;5.644;2023-05-10T08:31:04;3.80;;;1.90;;
36259;SDS011;22296;50.824;5.644;2023-05-10T08:33:32;9.02;;;2.53;;
36259;SDS011;22296;50.824;5.644;2023-05-10T08:35:59;3.80;;;1.90;;
36259;SDS011;22296;50.824;5.644;2023-05-10T08:38:26;3.70;;;2.05;;
36259;SDS011;22296;50.824;5.644;2023-05-10T08:40:53;2.78;;;2.00;;
36259;SDS011;22296;50.824;5.644;2023-05-10T08:43:26;6.13;;;2.00;;
36259;SDS011;22296;50.824;5.644;2023-05-10T08:45:55;3.15;;;1.70;;
36259;SDS011;22296;50.824;5.644;2023-05-10T08:48:25;3.55;;;1.73;;
36259;SDS011;22296;50.824;5.644;2023-05-10T08:50:55;3.63;;;1.70;;
36259;SDS011;22296;50.824;5.644;2023-05-10T08:53:25;3.67;;;1.88;;
36259;SDS011;22296;50.824;5.644;2023-05-10T08:55:53;2.93;;;1.83;;
36259;SDS011;22296;50.824;5.644;2023-05-10T08:58:20;2.47;;;1.63;;
36259;SDS011;22296;50.824;5.644;2023-05-10T09:00:48;2.55;;;1.70;;
36259;SDS011;22296;50.824;5.644;2023-05-10T09:03:17;1.77;;;1.30;;
36259;SDS011;22296;50.824;5.644;2023-05-10T09:05:44;2.72;;;1.85;;
36259;SDS011;22296;50.824;5.644;2023-05-10T09:08:11;3.70;;;1.85;;
36259;SDS011;22296;50.824;5.644;2023-05-10T09:10:39;1.58;;;1.48;;
36259;SDS011;22296;50.824;5.644;2023-05-10T09:13:09;2.20;;;1.60;;
36259;SDS011;22296;50.824;5.644;2023-05-10T09:18:04;2.55;;;1.40;;
36259;SDS011;22296;50.824;5.644;2023-05-10T09:20:31;3.13;;;1.60;;
36259;SDS011;22296;50.824;5.644;2023-05-10T09:22:58;2.25;;;1.30;;
36259;SDS011;22296;50.824;5.644;2023-05-10T09:25:25;2.65;;;1.70;;
36259;SDS011;22296;50.824;5.644;2023-05-10T09:27:53;1.80;;;1.45;;
36259;SDS011;22296;50.824;5.644;2023-05-10T09:32:52;1.75;;;1.38;;
36259;SDS011;22296;50.824;5.644;2023-05-10T09:35:21;2.92;;;1.38;;
36259;SDS011;22296;50.824;5.644;2023-05-10T09:37:56;1.42;;;1.33;;
36259;SDS011;22296;50.824;5.644;2023-05-10T09:40:25;1.70;;;1.40;;
36259;SDS011;22296;50.824;5.644;2023-05-10T09:42:58;1.63;;;1.30;;
36259;SDS011;22296;50.824;5.644;2023-05-10T09:45:27;1.20;;;1.10;;
36259;SDS011;22296;50.824;5.644;2023-05-10T09:47:55;1.77;;;1.40;;
36259;SDS011;22296;50.824;5.644;2023-05-10T09:50:23;2.35;;;1.30;;
36259;SDS011;22296;50.824;5.644;2023-05-10T09:52:51;2.25;;;1.30;;
36259;SDS011;22296;50.824;5.644;2023-05-10T09:55:20;1.77;;;1.45;;
36259;SDS011;22296;50.824;5.644;2023-05-10T10:00:24;2.05;;;1.23;;
36259;SDS011;22296;50.824;5.644;2023-05-10T10:02:54;1.52;;;1.27;;
36259;SDS011;22296;50.824;5.644;2023-05-10T10:05:31;3.85;;;1.40;;
36259;SDS011;22296;50.824;5.644;2023-05-10T10:08:02;1.38;;;1.25;;
36259;SDS011;22296;50.824;5.644;2023-05-10T10:10:31;1.92;;;1.50;;
36259;SDS011;22296;50.824;5.644;2023-05-10T10:12:59;3.33;;;1.57;;
36259;SDS011;22296;50.824;5.644;2023-05-10T10:15:26;1.33;;;1.10;;
36259;SDS011;22296;50.824;5.644;2023-05-10T10:17:53;1.55;;;1.30;;
36259;SDS011;22296;50.824;5.644;2023-05-10T10:20:21;2.35;;;1.55;;
36259;SDS011;22296;50.824;5.644;2023-05-10T10:22:49;3.33;;;1.53;;
36259;SDS011;22296;50.824;5.644;2023-05-10T10:25:16;2.65;;;1.45;;
36259;SDS011;22296;50.824;5.644;2023-05-10T10:35:14;1.67;;;1.40;;
36259;SDS011;22296;50.824;5.644;2023-05-10T10:37:43;1.50;;;1.30;;
36259;SDS011;22296;50.824;5.644;2023-05-10T10:42:52;1.42;;;1.10;;
36259;SDS011;22296;50.824;5.644;2023-05-10T10:45:20;1.75;;;1.50;;
36259;SDS011;22296;50.824;5.644;2023-05-10T10:47:48;1.80;;;1.30;;
36259;SDS011;22296;50.824;5.644;2023-05-10T10:50:16;1.88;;;1.35;;
36259;SDS011;22296;50.824;5.644;2023-05-10T10:52:43;1.30;;;1.13;;
36259;SDS011;22296;50.824;5.644;2023-05-10T11:00:20;1.75;;;1.35;;
36259;SDS011;22296;50.824;5.644;2023-05-10T11:08:16;1.42;;;1.33;;
36259;SDS011;22296;50.824;5.644;2023-05-10T11:10:54;2.47;;;1.60;;
36259;SDS011;22296;50.824;5.644;2023-05-10T11:18:40;1.75;;;1.40;;
36259;SDS011;22296;50.824;5.644;2023-05-10T11:21:18;2.10;;;1.33;;
36259;SDS011;22296;50.824;5.644;2023-05-10T11:26:14;1.92;;;1.50;;
36259;SDS011;22296;50.824;5.644;2023-05-10T11:28:45;1.42;;;1.30;;
36259;SDS011;22296;50.824;5.644;2023-05-10T11:31:13;2.90;;;1.42;;
36259;SDS011;22296;50.824;5.644;2023-05-10T11:33:49;1.80;;;1.40;;
36259;SDS011;22296;50.824;5.644;2023-05-10T11:36:18;2.33;;;1.60;;
36259;SDS011;22296;50.824;5.644;2023-05-10T11:38:47;3.60;;;1.40;;
36259;SDS011;22296;50.824;5.644;2023-05-10T11:41:16;1.80;;;1.23;;
36259;SDS011;22296;50.824;5.644;2023-05-10T11:43:46;1.73;;;1.30;;
36259;SDS011;22296;50.824;5.644;2023-05-10T11:46:15;1.67;;;1.25;;
36259;SDS011;22296;50.824;5.644;2023-05-10T11:48:46;2.78;;;1.38;;
36259;SDS011;22296;50.824;5.644;2023-05-10T11:51:15;1.50;;;1.20;;
36259;SDS011;22296;50.824;5.644;2023-05-10T11:53:46;2.42;;;1.30;;
36259;SDS011;22296;50.824;5.644;2023-05-10T11:56:13;1.67;;;1.38;;
36259;SDS011;22296;50.824;5.644;2023-05-10T11:58:40;2.00;;;1.30;;
36259;SDS011;22296;50.824;5.644;2023-05-10T12:01:07;1.45;;;1.00;;
36259;SDS011;22296;50.824;5.644;2023-05-10T12:03:35;1.80;;;1.50;;
36259;SDS011;22296;50.824;5.644;2023-05-10T12:06:03;1.65;;;1.20;;
36259;SDS011;22296;50.824;5.644;2023-05-10T12:08:30;1.73;;;1.30;;
36259;SDS011;22296;50.824;5.644;2023-05-10T12:11:04;1.35;;;1.25;;
36259;SDS011;22296;50.824;5.644;2023-05-10T12:13:37;2.13;;;1.45;;
36259;SDS011;22296;50.824;5.644;2023-05-10T12:16:18;1.55;;;1.20;;
36259;SDS011;22296;50.824;5.644;2023-05-10T12:18:45;1.27;;;1.17;;
36259;SDS011;22296;50.824;5.644;2023-05-10T12:21:14;2.22;;;1.20;;
36259;SDS011;22296;50.824;5.644;2023-05-10T12:23:42;1.55;;;1.42;;
36259;SDS011;22296;50.824;5.644;2023-05-10T12:26:12;1.55;;;1.10;;
36259;SDS011;22296;50.824;5.644;2023-05-10T12:28:39;1.30;;;1.20;;
36259;SDS011;22296;50.824;5.644;2023-05-10T12:31:06;1.50;;;1.30;;
36259;SDS011;22296;50.824;5.644;2023-05-10T12:36:05;1.67;;;1.30;;
36259;SDS011;22296;50.824;5.644;2023-05-10T12:38:34;1.70;;;1.45;;
36259;SDS011;22296;50.824;5.644;2023-05-10T12:41:05;1.83;;;1.17;;
36259;SDS011;22296;50.824;5.644;2023-05-10T12:46:13;2.47;;;1.10;;
36259;SDS011;22296;50.824;5.644;2023-05-10T12:48:43;1.85;;;1.20;;
36259;SDS011;22296;50.824;5.644;2023-05-10T12:51:12;2.88;;;1.55;;
36259;SDS011;22296;50.824;5.644;2023-05-10T12:53:42;2.33;;;1.30;;
36259;SDS011;22296;50.824;5.644;2023-05-10T12:56:12;1.27;;;1.17;;
36259;SDS011;22296;50.824;5.644;2023-05-10T12:58:39;1.85;;;1.40;;
36259;SDS011;22296;50.824;5.644;2023-05-10T13:01:06;1.92;;;1.20;;
36259;SDS011;22296;50.824;5.644;2023-05-10T13:03:32;3.33;;;1.10;;
36259;SDS011;22296;50.824;5.644;2023-05-10T13:05:59;1.52;;;1.00;;
36259;SDS011;22296;50.824;5.644;2023-05-10T13:08:26;1.85;;;1.20;;
36259;SDS011;22296;50.824;5.644;2023-05-10T13:10:53;1.50;;;1.23;;
36259;SDS011;22296;50.824;5.644;2023-05-10T13:13:19;2.22;;;1.30;;
36259;SDS011;22296;50.824;5.644;2023-05-10T13:15:46;1.80;;;1.17;;
36259;SDS011;22296;50.824;5.644;2023-05-10T13:18:13;1.60;;;1.30;;
36259;SDS011;22296;50.824;5.644;2023-05-10T13:20:40;2.28;;;1.30;;
36259;SDS011;22296;50.824;5.644;2023-05-10T13:23:07;1.67;;;1.17;;
36259;SDS011;22296;50.824;5.644;2023-05-10T13:25:34;2.78;;;1.42;;
36259;SDS011;22296;50.824;5.644;2023-05-10T13:28:01;2.40;;;1.20;;
36259;SDS011;22296;50.824;5.644;2023-05-10T13:30:28;2.58;;;1.35;;
36259;SDS011;22296;50.824;5.644;2023-05-10T13:32:55;1.65;;;1.10;;
36259;SDS011;22296;50.824;5.644;2023-05-10T13:35:22;1.98;;;1.35;;
36259;SDS011;22296;50.824;5.644;2023-05-10T13:37:49;1.67;;;1.20;;
36259;SDS011;22296;50.824;5.644;2023-05-10T13:40:16;1.83;;;1.02;;
36259;SDS011;22296;50.824;5.644;2023-05-10T13:42:43;1.85;;;1.20;;
36259;SDS011;22296;50.824;5.644;2023-05-10T13:45:10;1.65;;;1.20;;
36259;SDS011;22296;50.824;5.644;2023-05-10T13:47:38;1.98;;;1.00;;
36259;SDS011;22296;50.824;5.644;2023-05-10T13:50:05;1.55;;;1.40;;
36259;SDS011;22296;50.824;5.644;2023-05-10T13:52:33;1.73;;;1.20;;
36259;SDS011;22296;50.824;5.644;2023-05-10T13:55:00;1.42;;;1.20;;
36259;SDS011;22296;50.824;5.644;2023-05-10T13:57:26;1.98;;;1.02;;
36259;SDS011;22296;50.824;5.644;2023-05-10T13:59:55;2.13;;;1.08;;
36259;SDS011;22296;50.824;5.644;2023-05-10T14:02:23;2.45;;;1.10;;
36259;SDS011;22296;50.824;5.644;2023-05-10T14:04:49;1.15;;;1.02;;
36259;SDS011;22296;50.824;5.644;2023-05-10T14:07:16;1.95;;;1.17;;
36259;SDS011;22296;50.824;5.644;2023-05-10T14:09:44;1.40;;;1.05;;
36259;SDS011;22296;50.824;5.644;2023-05-10T14:12:10;1.05;;;0.90;;
36259;SDS011;22296;50.824;5.644;2023-05-10T14:14:37;1.58;;;1.30;;
36259;SDS011;22296;50.824;5.644;2023-05-10T14:17:04;1.00;;;0.90;;
36259;SDS011;22296;50.824;5.644;2023-05-10T14:19:31;1.25;;;1.00;;
36259;SDS011;22296;50.824;5.644;2023-05-10T14:22:00;1.03;;;0.87;;
36259;SDS011;22296;50.824;5.644;2023-05-10T14:24:26;2.63;;;1.10;;
36259;SDS011;22296;50.824;5.644;2023-05-10T14:26:53;0.95;;;0.82;;
36259;SDS011;22296;50.824;5.644;2023-05-10T14:29:20;1.75;;;1.00;;
36259;SDS011;22296;50.824;5.644;2023-05-10T14:31:48;1.00;;;0.90;;
36259;SDS011;22296;50.824;5.644;2023-05-10T14:34:16;1.35;;;1.15;;
36259;SDS011;22296;50.824;5.644;2023-05-10T14:36:43;1.00;;;0.90;;
36259;SDS011;22296;50.824;5.644;2023-05-10T14:39:09;1.10;;;1.00;;
36259;SDS011;22296;50.824;5.644;2023-05-10T14:44:07;1.95;;;1.05;;
36259;SDS011;22296;50.824;5.644;2023-05-10T14:46:34;1.10;;;1.00;;
36259;SDS011;22296;50.824;5.644;2023-05-10T14:49:01;1.25;;;0.93;;
36259;SDS011;22296;50.824;5.644;2023-05-10T14:51:28;1.55;;;1.00;;
36259;SDS011;22296;50.824;5.644;2023-05-10T14:53:55;2.42;;;0.93;;
36259;SDS011;22296;50.824;5.644;2023-05-10T14:56:22;1.15;;;0.88;;
36259;SDS011;22296;50.824;5.644;2023-05-10T14:58:49;1.20;;;1.10;;
36259;SDS011;22296;50.824;5.644;2023-05-10T15:01:16;1.00;;;0.90;;
36259;SDS011;22296;50.824;5.644;2023-05-10T15:03:44;1.00;;;0.90;;
36259;SDS011;22296;50.824;5.644;2023-05-10T15:06:11;1.15;;;1.00;;
36259;SDS011;22296;50.824;5.644;2023-05-10T15:08:40;1.10;;;1.00;;
36259;SDS011;22296;50.824;5.644;2023-05-10T15:11:07;1.00;;;0.90;;
36259;SDS011;22296;50.824;5.644;2023-05-10T15:13:34;1.73;;;0.90;;
36259;SDS011;22296;50.824;5.644;2023-05-10T15:16:00;1.35;;;0.75;;
36259;SDS011;22296;50.824;5.644;2023-05-10T15:18:27;0.98;;;0.70;;
36259;SDS011;22296;50.824;5.644;2023-05-10T15:20:54;1.15;;;1.00;;
36259;SDS011;22296;50.824;5.644;2023-05-10T15:23:21;1.00;;;0.90;;
36259;SDS011;22296;50.824;5.644;2023-05-10T15:25:48;1.75;;;0.80;;
36259;SDS011;22296;50.824;5.644;2023-05-10T15:28:18;0.80;;;0.70;;
36259;SDS011;22296;50.824;5.644;2023-05-10T15:30:45;1.17;;;0.80;;
36259;SDS011;22296;50.824;5.644;2023-05-10T15:33:12;0.82;;;0.60;;
36259;SDS011;22296;50.824;5.644;2023-05-10T15:35:38;0.80;;;0.80;;
36259;SDS011;22296;50.824;5.644;2023-05-10T15:38:05;0.73;;;0.63;;
36259;SDS011;22296;50.824;5.644;2023-05-10T15:40:33;0.77;;;0.77;;
36259;SDS011;22296;50.824;5.644;2023-05-10T15:43:00;0.80;;;0.70;;
36259;SDS011;22296;50.824;5.644;2023-05-10T15:45:27;0.70;;;0.70;;
36259;SDS011;22296;50.824;5.644;2023-05-10T15:47:54;1.00;;;0.90;;
36259;SDS011;22296;50.824;5.644;2023-05-10T15:50:21;0.95;;;0.75;;
36259;SDS011;22296;50.824;5.644;2023-05-10T15:52:48;1.13;;;0.73;;
36259;SDS011;22296;50.824;5.644;2023-05-10T15:55:15;0.90;;;0.70;;
36259;SDS011;22296;50.824;5.644;2023-05-10T15:57:42;0.90;;;0.70;;
36259;SDS011;22296;50.824;5.644;2023-05-10T16:00:10;1.35;;;0.90;;
36259;SDS011;22296;50.824;5.644;2023-05-10T16:02:38;1.20;;;0.77;;